sensor_id;sensor_type;location;lat;lon;timestamp;temperature;humidity
57857;DHT22;43683;48.650;9.290;2023-04-16T00:00:46;7.30;83.40
57857;DHT22;43683;48.650;9.290;2023-04-16T00:03:13;7.30;83.30
57857;DHT22;43683;48.650;9.290;2023-04-16T00:05:38;7.30;83.40
57857;DHT22;43683;48.650;9.290;2023-04-16T00:08:04;7.30;83.50
57857;DHT22;43683;48.650;9.290;2023-04-16T00:10:30;7.30;83.50
57857;DHT22;43683;48.650;9.290;2023-04-16T00:12:55;7.30;83.60
57857;DHT22;43683;48.650;9.290;2023-04-16T00:15:21;7.20;83.60
57857;DHT22;43683;48.650;9.290;2023-04-16T00:17:46;7.30;83.70
57857;DHT22;43683;48.650;9.290;2023-04-16T00:20:12;7.30;83.90
57857;DHT22;43683;48.650;9.290;2023-04-16T00:22:37;7.20;83.80
57857;DHT22;43683;48.650;9.290;2023-04-16T00:25:03;7.30;83.80
57857;DHT22;43683;48.650;9.290;2023-04-16T00:27:29;7.30;83.80
57857;DHT22;43683;48.650;9.290;2023-04-16T00:29:55;7.30;84.00
57857;DHT22;43683;48.650;9.290;2023-04-16T00:32:20;7.20;84.00
57857;DHT22;43683;48.650;9.290;2023-04-16T00:34:46;7.30;84.10
57857;DHT22;43683;48.650;9.290;2023-04-16T00:37:11;7.20;84.10
57857;DHT22;43683;48.650;9.290;2023-04-16T00:39:37;7.20;84.40
57857;DHT22;43683;48.650;9.290;2023-04-16T00:42:02;7.20;84.30
57857;DHT22;43683;48.650;9.290;2023-04-16T00:44:28;7.20;84.20
57857;DHT22;43683;48.650;9.290;2023-04-16T00:46:55;7.20;84.30
57857;DHT22;43683;48.650;9.290;2023-04-16T00:49:22;7.20;84.30
57857;DHT22;43683;48.650;9.290;2023-04-16T00:51:47;7.20;84.30
57857;DHT22;43683;48.650;9.290;2023-04-16T00:54:13;7.20;84.30
57857;DHT22;43683;48.650;9.290;2023-04-16T00:56:38;7.20;84.30
57857;DHT22;43683;48.650;9.290;2023-04-16T00:59:04;7.20;84.30
57857;DHT22;43683;48.650;9.290;2023-04-16T01:01:30;7.30;84.40
57857;DHT22;43683;48.650;9.290;2023-04-16T01:03:56;7.20;84.50
57857;DHT22;43683;48.650;9.290;2023-04-16T01:06:21;7.20;84.70
57857;DHT22;43683;48.650;9.290;2023-04-16T01:08:47;7.20;84.80
57857;DHT22;43683;48.650;9.290;2023-04-16T01:11:14;7.20;84.70
57857;DHT22;43683;48.650;9.290;2023-04-16T01:13:40;7.30;84.80
57857;DHT22;43683;48.650;9.290;2023-04-16T01:16:07;7.20;84.80
57857;DHT22;43683;48.650;9.290;2023-04-16T01:18:33;7.30;84.90
57857;DHT22;43683;48.650;9.290;2023-04-16T01:20:58;7.30;84.80
57857;DHT22;43683;48.650;9.290;2023-04-16T01:23:24;7.30;85.00
57857;DHT22;43683;48.650;9.290;2023-04-16T01:25:50;7.30;85.00
57857;DHT22;43683;48.650;9.290;2023-04-16T01:28:15;7.30;85.20
57857;DHT22;43683;48.650;9.290;2023-04-16T01:30:41;7.30;85.20
57857;DHT22;43683;48.650;9.290;2023-04-16T01:33:10;7.30;85.40
57857;DHT22;43683;48.650;9.290;2023-04-16T01:35:36;7.30;85.50
57857;DHT22;43683;48.650;9.290;2023-04-16T01:38:02;7.30;85.40
57857;DHT22;43683;48.650;9.290;2023-04-16T01:40:28;7.30;85.50
57857;DHT22;43683;48.650;9.290;2023-04-16T01:42:53;7.20;85.40
57857;DHT22;43683;48.650;9.290;2023-04-16T01:45:19;7.20;85.40
57857;DHT22;43683;48.650;9.290;2023-04-16T01:47:45;7.20;85.60
57857;DHT22;43683;48.650;9.290;2023-04-16T01:50:11;7.30;85.60
57857;DHT22;43683;48.650;9.290;2023-04-16T01:52:36;7.20;85.40
57857;DHT22;43683;48.650;9.290;2023-04-16T01:55:02;7.20;85.50
57857;DHT22;43683;48.650;9.290;2023-04-16T01:57:28;7.20;85.60
57857;DHT22;43683;48.650;9.290;2023-04-16T01:59:53;7.20;85.60
57857;DHT22;43683;48.650;9.290;2023-04-16T02:02:19;7.20;85.90
57857;DHT22;43683;48.650;9.290;2023-04-16T02:04:45;7.20;85.70
57857;DHT22;43683;48.650;9.290;2023-04-16T02:07:11;7.20;85.60
57857;DHT22;43683;48.650;9.290;2023-04-16T02:09:37;7.20;85.70
57857;DHT22;43683;48.650;9.290;2023-04-16T02:12:04;7.20;85.90
57857;DHT22;43683;48.650;9.290;2023-04-16T02:14:30;7.20;85.90
57857;DHT22;43683;48.650;9.290;2023-04-16T02:16:56;7.20;85.90
57857;DHT22;43683;48.650;9.290;2023-04-16T02:19:22;7.20;85.90
57857;DHT22;43683;48.650;9.290;2023-04-16T02:21:47;7.20;86.00
57857;DHT22;43683;48.650;9.290;2023-04-16T02:24:13;7.20;86.00
57857;DHT22;43683;48.650;9.290;2023-04-16T02:26:39;7.20;86.10
57857;DHT22;43683;48.650;9.290;2023-04-16T02:29:05;7.20;86.90
57857;DHT22;43683;48.650;9.290;2023-04-16T02:31:31;7.20;86.20
57857;DHT22;43683;48.650;9.290;2023-04-16T02:33:56;7.20;86.20
57857;DHT22;43683;48.650;9.290;2023-04-16T02:36:22;7.20;86.20
57857;DHT22;43683;48.650;9.290;2023-04-16T02:38:48;7.20;86.30
57857;DHT22;43683;48.650;9.290;2023-04-16T02:41:13;7.20;86.30
57857;DHT22;43683;48.650;9.290;2023-04-16T02:43:39;7.20;86.30
57857;DHT22;43683;48.650;9.290;2023-04-16T02:46:05;7.20;86.40
57857;DHT22;43683;48.650;9.290;2023-04-16T02:48:31;7.20;86.50
57857;DHT22;43683;48.650;9.290;2023-04-16T02:50:56;7.20;86.50
57857;DHT22;43683;48.650;9.290;2023-04-16T02:53:22;7.20;86.60
57857;DHT22;43683;48.650;9.290;2023-04-16T02:55:51;7.20;86.70
57857;DHT22;43683;48.650;9.290;2023-04-16T02:58:17;7.20;86.80
57857;DHT22;43683;48.650;9.290;2023-04-16T03:00:43;7.20;86.70
57857;DHT22;43683;48.650;9.290;2023-04-16T03:03:09;7.20;86.90
57857;DHT22;43683;48.650;9.290;2023-04-16T03:05:34;7.20;87.00
57857;DHT22;43683;48.650;9.290;2023-04-16T03:08:00;7.20;86.90
57857;DHT22;43683;48.650;9.290;2023-04-16T03:10:25;7.20;86.90
57857;DHT22;43683;48.650;9.290;2023-04-16T03:12:51;7.20;87.50
57857;DHT22;43683;48.650;9.290;2023-04-16T03:15:16;7.20;86.80
57857;DHT22;43683;48.650;9.290;2023-04-16T03:17:42;7.20;86.90
57857;DHT22;43683;48.650;9.290;2023-04-16T03:20:08;7.20;86.90
57857;DHT22;43683;48.650;9.290;2023-04-16T03:22:34;7.20;86.90
57857;DHT22;43683;48.650;9.290;2023-04-16T03:25:00;7.20;87.00
57857;DHT22;43683;48.650;9.290;2023-04-16T03:27:25;7.20;87.00
57857;DHT22;43683;48.650;9.290;2023-04-16T03:29:51;7.20;87.00
57857;DHT22;43683;48.650;9.290;2023-04-16T03:32:16;7.20;87.00
57857;DHT22;43683;48.650;9.290;2023-04-16T03:34:42;7.20;87.00
57857;DHT22;43683;48.650;9.290;2023-04-16T03:37:07;7.20;87.10
57857;DHT22;43683;48.650;9.290;2023-04-16T03:39:36;7.20;87.10
57857;DHT22;43683;48.650;9.290;2023-04-16T03:42:01;7.20;87.20
57857;DHT22;43683;48.650;9.290;2023-04-16T03:44:28;7.20;87.30
57857;DHT22;43683;48.650;9.290;2023-04-16T03:46:53;7.20;87.40
57857;DHT22;43683;48.650;9.290;2023-04-16T03:49:19;7.20;87.40
57857;DHT22;43683;48.650;9.290;2023-04-16T03:51:45;7.10;87.80
57857;DHT22;43683;48.650;9.290;2023-04-16T03:54:11;7.10;87.80
57857;DHT22;43683;48.650;9.290;2023-04-16T03:56:38;7.10;87.70
57857;DHT22;43683;48.650;9.290;2023-04-16T03:59:04;7.10;87.70
57857;DHT22;43683;48.650;9.290;2023-04-16T04:01:29;7.10;87.60
57857;DHT22;43683;48.650;9.290;2023-04-16T04:03:55;7.10;87.60
57857;DHT22;43683;48.650;9.290;2023-04-16T04:06:20;7.10;87.80
57857;DHT22;43683;48.650;9.290;2023-04-16T04:08:46;7.10;87.70
57857;DHT22;43683;48.650;9.290;2023-04-16T04:11:11;7.10;87.70
57857;DHT22;43683;48.650;9.290;2023-04-16T04:13:37;7.10;87.70
57857;DHT22;43683;48.650;9.290;2023-04-16T04:16:02;7.10;87.60
57857;DHT22;43683;48.650;9.290;2023-04-16T04:18:28;7.10;87.80
57857;DHT22;43683;48.650;9.290;2023-04-16T04:20:54;7.10;87.80
57857;DHT22;43683;48.650;9.290;2023-04-16T04:23:19;7.10;87.80
57857;DHT22;43683;48.650;9.290;2023-04-16T04:25:45;7.10;87.80
57857;DHT22;43683;48.650;9.290;2023-04-16T04:28:11;7.10;87.80
57857;DHT22;43683;48.650;9.290;2023-04-16T04:30:36;7.10;87.80
57857;DHT22;43683;48.650;9.290;2023-04-16T04:33:02;7.10;87.80
57857;DHT22;43683;48.650;9.290;2023-04-16T04:35:27;7.10;87.80
57857;DHT22;43683;48.650;9.290;2023-04-16T04:37:53;7.10;87.80
57857;DHT22;43683;48.650;9.290;2023-04-16T04:40:18;7.10;87.80
57857;DHT22;43683;48.650;9.290;2023-04-16T04:42:44;7.10;87.90
57857;DHT22;43683;48.650;9.290;2023-04-16T04:45:10;7.10;88.10
57857;DHT22;43683;48.650;9.290;2023-04-16T04:47:35;7.10;88.20
57857;DHT22;43683;48.650;9.290;2023-04-16T04:50:01;7.10;88.10
57857;DHT22;43683;48.650;9.290;2023-04-16T04:52:26;7.10;88.20
57857;DHT22;43683;48.650;9.290;2023-04-16T04:54:52;7.10;88.20
57857;DHT22;43683;48.650;9.290;2023-04-16T04:57:17;7.10;88.10
57857;DHT22;43683;48.650;9.290;2023-04-16T04:59:43;7.10;88.00
57857;DHT22;43683;48.650;9.290;2023-04-16T05:02:08;7.10;88.10
57857;DHT22;43683;48.650;9.290;2023-04-16T05:04:34;7.10;88.30
57857;DHT22;43683;48.650;9.290;2023-04-16T05:06:59;7.10;88.30
57857;DHT22;43683;48.650;9.290;2023-04-16T05:09:26;7.10;88.20
57857;DHT22;43683;48.650;9.290;2023-04-16T05:11:52;7.10;88.20
57857;DHT22;43683;48.650;9.290;2023-04-16T05:14:17;7.10;88.10
57857;DHT22;43683;48.650;9.290;2023-04-16T05:16:43;7.10;88.00
57857;DHT22;43683;48.650;9.290;2023-04-16T05:19:08;7.10;88.10
57857;DHT22;43683;48.650;9.290;2023-04-16T05:21:34;7.10;88.30
57857;DHT22;43683;48.650;9.290;2023-04-16T05:24:00;7.10;88.40
57857;DHT22;43683;48.650;9.290;2023-04-16T05:26:25;7.20;88.30
57857;DHT22;43683;48.650;9.290;2023-04-16T05:28:51;7.20;88.30
57857;DHT22;43683;48.650;9.290;2023-04-16T05:31:16;7.20;88.30
57857;DHT22;43683;48.650;9.290;2023-04-16T05:33:42;7.10;88.40
57857;DHT22;43683;48.650;9.290;2023-04-16T05:36:07;7.20;88.40
57857;DHT22;43683;48.650;9.290;2023-04-16T05:38:33;7.20;88.40
57857;DHT22;43683;48.650;9.290;2023-04-16T05:40:58;7.20;88.50
57857;DHT22;43683;48.650;9.290;2023-04-16T05:43:24;7.20;88.50
57857;DHT22;43683;48.650;9.290;2023-04-16T05:45:49;7.20;88.50
57857;DHT22;43683;48.650;9.290;2023-04-16T05:48:15;7.20;88.50
57857;DHT22;43683;48.650;9.290;2023-04-16T05:50:40;7.20;88.60
57857;DHT22;43683;48.650;9.290;2023-04-16T05:53:07;7.10;88.60
57857;DHT22;43683;48.650;9.290;2023-04-16T05:55:33;7.20;88.70
57857;DHT22;43683;48.650;9.290;2023-04-16T05:58:00;7.20;88.70
57857;DHT22;43683;48.650;9.290;2023-04-16T06:00:28;7.20;88.80
57857;DHT22;43683;48.650;9.290;2023-04-16T06:02:54;7.20;88.80
57857;DHT22;43683;48.650;9.290;2023-04-16T06:05:20;7.20;88.70
57857;DHT22;43683;48.650;9.290;2023-04-16T06:07:46;7.20;88.60
57857;DHT22;43683;48.650;9.290;2023-04-16T06:10:11;7.30;88.60
57857;DHT22;43683;48.650;9.290;2023-04-16T06:12:37;7.30;88.50
57857;DHT22;43683;48.650;9.290;2023-04-16T06:15:03;7.30;88.80
57857;DHT22;43683;48.650;9.290;2023-04-16T06:17:29;7.20;88.70
57857;DHT22;43683;48.650;9.290;2023-04-16T06:19:54;7.30;88.60
57857;DHT22;43683;48.650;9.290;2023-04-16T06:22:20;7.30;88.50
57857;DHT22;43683;48.650;9.290;2023-04-16T06:24:45;7.30;88.60
57857;DHT22;43683;48.650;9.290;2023-04-16T06:27:11;7.30;88.60
57857;DHT22;43683;48.650;9.290;2023-04-16T06:29:36;7.40;88.50
57857;DHT22;43683;48.650;9.290;2023-04-16T06:32:02;7.40;88.60
57857;DHT22;43683;48.650;9.290;2023-04-16T06:34:28;7.30;88.50
57857;DHT22;43683;48.650;9.290;2023-04-16T06:36:54;7.30;88.50
57857;DHT22;43683;48.650;9.290;2023-04-16T06:39:19;7.30;88.60
57857;DHT22;43683;48.650;9.290;2023-04-16T06:41:47;7.40;88.70
57857;DHT22;43683;48.650;9.290;2023-04-16T06:44:12;7.40;88.80
57857;DHT22;43683;48.650;9.290;2023-04-16T06:46:38;7.40;88.70
57857;DHT22;43683;48.650;9.290;2023-04-16T06:49:03;7.40;88.80
57857;DHT22;43683;48.650;9.290;2023-04-16T06:51:29;7.40;88.70
57857;DHT22;43683;48.650;9.290;2023-04-16T06:53:54;7.50;88.80
57857;DHT22;43683;48.650;9.290;2023-04-16T06:56:20;7.50;88.80
57857;DHT22;43683;48.650;9.290;2023-04-16T06:58:46;7.40;88.90
57857;DHT22;43683;48.650;9.290;2023-04-16T07:01:11;7.40;88.90
57857;DHT22;43683;48.650;9.290;2023-04-16T07:03:37;7.50;88.90
57857;DHT22;43683;48.650;9.290;2023-04-16T07:06:02;7.40;88.90
57857;DHT22;43683;48.650;9.290;2023-04-16T07:08:28;7.40;89.20
57857;DHT22;43683;48.650;9.290;2023-04-16T07:10:53;7.50;89.20
57857;DHT22;43683;48.650;9.290;2023-04-16T07:13:19;7.50;89.00
57857;DHT22;43683;48.650;9.290;2023-04-16T07:15:46;7.50;89.10
57857;DHT22;43683;48.650;9.290;2023-04-16T07:18:11;7.50;89.10
57857;DHT22;43683;48.650;9.290;2023-04-16T07:20:37;7.60;89.10
57857;DHT22;43683;48.650;9.290;2023-04-16T07:23:02;7.60;89.10
57857;DHT22;43683;48.650;9.290;2023-04-16T07:25:28;7.50;89.30
57857;DHT22;43683;48.650;9.290;2023-04-16T07:27:53;7.50;89.40
57857;DHT22;43683;48.650;9.290;2023-04-16T07:30:19;7.50;89.40
57857;DHT22;43683;48.650;9.290;2023-04-16T07:32:45;7.50;89.50
57857;DHT22;43683;48.650;9.290;2023-04-16T07:35:10;7.50;89.50
57857;DHT22;43683;48.650;9.290;2023-04-16T07:37:36;7.50;89.50
57857;DHT22;43683;48.650;9.290;2023-04-16T07:40:01;7.50;89.40
57857;DHT22;43683;48.650;9.290;2023-04-16T07:42:27;7.50;89.50
57857;DHT22;43683;48.650;9.290;2023-04-16T07:44:53;7.60;89.40
57857;DHT22;43683;48.650;9.290;2023-04-16T07:47:19;7.70;89.20
57857;DHT22;43683;48.650;9.290;2023-04-16T07:49:44;7.70;89.10
57857;DHT22;43683;48.650;9.290;2023-04-16T07:52:10;7.70;89.20
57857;DHT22;43683;48.650;9.290;2023-04-16T07:54:36;7.80;89.20
57857;DHT22;43683;48.650;9.290;2023-04-16T07:57:01;7.70;89.40
57857;DHT22;43683;48.650;9.290;2023-04-16T07:59:27;7.70;89.40
57857;DHT22;43683;48.650;9.290;2023-04-16T08:01:52;7.80;89.40
57857;DHT22;43683;48.650;9.290;2023-04-16T08:04:19;7.80;89.30
57857;DHT22;43683;48.650;9.290;2023-04-16T08:06:49;7.90;89.30
57857;DHT22;43683;48.650;9.290;2023-04-16T08:09:15;7.90;89.10
57857;DHT22;43683;48.650;9.290;2023-04-16T08:11:41;7.90;89.30
57857;DHT22;43683;48.650;9.290;2023-04-16T08:14:07;7.90;89.40
57857;DHT22;43683;48.650;9.290;2023-04-16T08:16:32;8.00;89.00
57857;DHT22;43683;48.650;9.290;2023-04-16T08:18:58;8.20;88.40
57857;DHT22;43683;48.650;9.290;2023-04-16T08:21:25;8.30;87.90
57857;DHT22;43683;48.650;9.290;2023-04-16T08:23:52;8.40;87.60
57857;DHT22;43683;48.650;9.290;2023-04-16T08:26:18;8.40;87.50
57857;DHT22;43683;48.650;9.290;2023-04-16T08:28:43;8.30;87.50
57857;DHT22;43683;48.650;9.290;2023-04-16T08:31:09;8.30;87.50
57857;DHT22;43683;48.650;9.290;2023-04-16T08:33:34;8.30;87.50
57857;DHT22;43683;48.650;9.290;2023-04-16T08:36:00;8.40;87.60
57857;DHT22;43683;48.650;9.290;2023-04-16T08:38:26;8.40;87.50
57857;DHT22;43683;48.650;9.290;2023-04-16T08:40:52;8.40;87.40
57857;DHT22;43683;48.650;9.290;2023-04-16T08:43:19;8.40;87.70
57857;DHT22;43683;48.650;9.290;2023-04-16T08:45:46;8.20;88.20
57857;DHT22;43683;48.650;9.290;2023-04-16T08:48:13;8.00;88.80
57857;DHT22;43683;48.650;9.290;2023-04-16T08:50:39;8.00;89.30
57857;DHT22;43683;48.650;9.290;2023-04-16T08:53:05;7.90;89.40
57857;DHT22;43683;48.650;9.290;2023-04-16T08:55:36;8.00;89.60
57857;DHT22;43683;48.650;9.290;2023-04-16T08:58:08;8.10;89.30
57857;DHT22;43683;48.650;9.290;2023-04-16T09:00:36;8.10;89.20
57857;DHT22;43683;48.650;9.290;2023-04-16T09:03:03;8.10;89.20
57857;DHT22;43683;48.650;9.290;2023-04-16T09:05:28;8.00;89.40
57857;DHT22;43683;48.650;9.290;2023-04-16T09:07:55;7.90;89.50
57857;DHT22;43683;48.650;9.290;2023-04-16T09:10:20;8.00;89.60
57857;DHT22;43683;48.650;9.290;2023-04-16T09:12:46;7.90;89.60
57857;DHT22;43683;48.650;9.290;2023-04-16T09:15:12;7.80;89.80
57857;DHT22;43683;48.650;9.290;2023-04-16T09:17:38;7.90;89.70
57857;DHT22;43683;48.650;9.290;2023-04-16T09:20:05;8.10;89.40
57857;DHT22;43683;48.650;9.290;2023-04-16T09:22:33;8.20;89.10
57857;DHT22;43683;48.650;9.290;2023-04-16T09:24:59;8.20;89.00
57857;DHT22;43683;48.650;9.290;2023-04-16T09:27:24;8.40;88.70
57857;DHT22;43683;48.650;9.290;2023-04-16T09:29:51;8.70;88.10
57857;DHT22;43683;48.650;9.290;2023-04-16T09:32:24;8.70;88.00
57857;DHT22;43683;48.650;9.290;2023-04-16T09:34:58;8.60;88.50
57857;DHT22;43683;48.650;9.290;2023-04-16T09:37:25;8.60;88.60
57857;DHT22;43683;48.650;9.290;2023-04-16T09:39:58;8.60;88.40
57857;DHT22;43683;48.650;9.290;2023-04-16T09:42:26;8.70;88.30
57857;DHT22;43683;48.650;9.290;2023-04-16T09:44:52;8.70;88.00
57857;DHT22;43683;48.650;9.290;2023-04-16T09:47:18;8.80;87.90
57857;DHT22;43683;48.650;9.290;2023-04-16T09:49:43;8.80;87.70
57857;DHT22;43683;48.650;9.290;2023-04-16T09:52:16;8.90;87.70
57857;DHT22;43683;48.650;9.290;2023-04-16T09:54:49;8.90;87.70
57857;DHT22;43683;48.650;9.290;2023-04-16T09:57:22;8.90;88.70
57857;DHT22;43683;48.650;9.290;2023-04-16T10:00:00;8.90;87.90
57857;DHT22;43683;48.650;9.290;2023-04-16T10:02:29;8.80;88.00
57857;DHT22;43683;48.650;9.290;2023-04-16T10:04:56;8.70;88.20
57857;DHT22;43683;48.650;9.290;2023-04-16T10:07:27;8.70;88.20
57857;DHT22;43683;48.650;9.290;2023-04-16T10:09:53;8.70;88.10
57857;DHT22;43683;48.650;9.290;2023-04-16T10:12:20;8.80;88.00
57857;DHT22;43683;48.650;9.290;2023-04-16T10:14:45;8.80;87.80
57857;DHT22;43683;48.650;9.290;2023-04-16T10:17:11;8.80;87.80
57857;DHT22;43683;48.650;9.290;2023-04-16T10:19:37;8.70;88.00
57857;DHT22;43683;48.650;9.290;2023-04-16T10:22:03;8.70;88.00
57857;DHT22;43683;48.650;9.290;2023-04-16T10:24:29;8.70;88.00
57857;DHT22;43683;48.650;9.290;2023-04-16T10:26:56;8.70;88.10
57857;DHT22;43683;48.650;9.290;2023-04-16T10:29:22;8.70;88.20
57857;DHT22;43683;48.650;9.290;2023-04-16T10:31:49;8.60;88.40
57857;DHT22;43683;48.650;9.290;2023-04-16T10:34:15;8.60;88.40
57857;DHT22;43683;48.650;9.290;2023-04-16T10:36:42;8.60;88.40
57857;DHT22;43683;48.650;9.290;2023-04-16T10:39:11;8.70;88.20
57857;DHT22;43683;48.650;9.290;2023-04-16T10:41:38;8.70;88.30
57857;DHT22;43683;48.650;9.290;2023-04-16T10:44:08;8.70;88.00
57857;DHT22;43683;48.650;9.290;2023-04-16T10:46:41;8.80;88.10
57857;DHT22;43683;48.650;9.290;2023-04-16T10:49:24;8.70;88.30
57857;DHT22;43683;48.650;9.290;2023-04-16T10:51:57;8.60;88.60
57857;DHT22;43683;48.650;9.290;2023-04-16T10:54:25;8.60;88.40
57857;DHT22;43683;48.650;9.290;2023-04-16T10:56:52;8.60;88.60
57857;DHT22;43683;48.650;9.290;2023-04-16T10:59:19;8.60;88.70
57857;DHT22;43683;48.650;9.290;2023-04-16T11:01:48;8.70;88.60
57857;DHT22;43683;48.650;9.290;2023-04-16T11:09:52;8.80;88.30
57857;DHT22;43683;48.650;9.290;2023-04-16T11:12:19;8.90;88.00
57857;DHT22;43683;48.650;9.290;2023-04-16T11:17:48;8.90;87.90
57857;DHT22;43683;48.650;9.290;2023-04-16T11:22:41;8.60;88.60
57857;DHT22;43683;48.650;9.290;2023-04-16T11:25:07;8.60;88.90
57857;DHT22;43683;48.650;9.290;2023-04-16T11:27:33;8.60;88.70
57857;DHT22;43683;48.650;9.290;2023-04-16T11:30:00;8.70;88.70
57857;DHT22;43683;48.650;9.290;2023-04-16T11:32:26;8.70;88.70
57857;DHT22;43683;48.650;9.290;2023-04-16T11:34:52;8.70;88.90
57857;DHT22;43683;48.650;9.290;2023-04-16T11:37:29;8.70;88.70
57857;DHT22;43683;48.650;9.290;2023-04-16T11:39:56;8.70;88.90
57857;DHT22;43683;48.650;9.290;2023-04-16T11:42:22;8.70;88.90
57857;DHT22;43683;48.650;9.290;2023-04-16T11:44:51;8.70;89.00
57857;DHT22;43683;48.650;9.290;2023-04-16T11:47:17;8.80;89.00
57857;DHT22;43683;48.650;9.290;2023-04-16T11:49:43;8.70;89.30
57857;DHT22;43683;48.650;9.290;2023-04-16T11:52:08;8.70;89.30
57857;DHT22;43683;48.650;9.290;2023-04-16T11:54:34;8.60;89.50
57857;DHT22;43683;48.650;9.290;2023-04-16T11:57:01;8.60;89.50
57857;DHT22;43683;48.650;9.290;2023-04-16T11:59:29;8.60;89.50
57857;DHT22;43683;48.650;9.290;2023-04-16T12:01:54;8.60;89.40
57857;DHT22;43683;48.650;9.290;2023-04-16T12:04:25;8.70;89.30
57857;DHT22;43683;48.650;9.290;2023-04-16T12:07:10;8.70;89.10
57857;DHT22;43683;48.650;9.290;2023-04-16T12:09:38;8.80;89.30
57857;DHT22;43683;48.650;9.290;2023-04-16T12:12:04;8.80;89.00
57857;DHT22;43683;48.650;9.290;2023-04-16T12:14:31;8.90;88.90
57857;DHT22;43683;48.650;9.290;2023-04-16T12:17:19;8.80;89.20
57857;DHT22;43683;48.650;9.290;2023-04-16T12:19:54;8.90;89.00
57857;DHT22;43683;48.650;9.290;2023-04-16T12:22:30;8.90;89.10
57857;DHT22;43683;48.650;9.290;2023-04-16T12:24:57;8.90;89.10
57857;DHT22;43683;48.650;9.290;2023-04-16T12:27:23;9.00;89.20
57857;DHT22;43683;48.650;9.290;2023-04-16T12:30:03;8.90;89.30
57857;DHT22;43683;48.650;9.290;2023-04-16T12:32:29;9.00;89.40
57857;DHT22;43683;48.650;9.290;2023-04-16T12:34:54;9.00;89.40
57857;DHT22;43683;48.650;9.290;2023-04-16T12:37:20;9.10;89.30
57857;DHT22;43683;48.650;9.290;2023-04-16T12:39:46;9.20;88.90
57857;DHT22;43683;48.650;9.290;2023-04-16T12:42:11;9.20;88.80
57857;DHT22;43683;48.650;9.290;2023-04-16T12:44:37;9.10;89.10
57857;DHT22;43683;48.650;9.290;2023-04-16T12:47:02;9.10;89.30
57857;DHT22;43683;48.650;9.290;2023-04-16T12:49:29;9.10;89.30
57857;DHT22;43683;48.650;9.290;2023-04-16T12:51:55;9.00;89.40
57857;DHT22;43683;48.650;9.290;2023-04-16T12:54:20;9.00;89.50
57857;DHT22;43683;48.650;9.290;2023-04-16T12:56:46;9.00;89.50
57857;DHT22;43683;48.650;9.290;2023-04-16T12:59:12;8.90;89.70
57857;DHT22;43683;48.650;9.290;2023-04-16T13:01:37;9.00;89.70
57857;DHT22;43683;48.650;9.290;2023-04-16T13:04:03;9.00;89.60
57857;DHT22;43683;48.650;9.290;2023-04-16T13:06:29;8.90;90.00
57857;DHT22;43683;48.650;9.290;2023-04-16T13:08:57;8.90;90.20
57857;DHT22;43683;48.650;9.290;2023-04-16T13:11:23;8.90;89.70
57857;DHT22;43683;48.650;9.290;2023-04-16T13:13:48;8.90;89.80
57857;DHT22;43683;48.650;9.290;2023-04-16T13:16:14;8.90;90.00
57857;DHT22;43683;48.650;9.290;2023-04-16T13:18:40;8.80;90.00
57857;DHT22;43683;48.650;9.290;2023-04-16T13:21:06;8.70;90.20
57857;DHT22;43683;48.650;9.290;2023-04-16T13:23:33;8.70;90.60
57857;DHT22;43683;48.650;9.290;2023-04-16T13:25:59;8.70;90.30
57857;DHT22;43683;48.650;9.290;2023-04-16T13:28:24;8.80;90.10
57857;DHT22;43683;48.650;9.290;2023-04-16T13:30:50;8.80;90.10
57857;DHT22;43683;48.650;9.290;2023-04-16T13:33:16;8.80;90.00
57857;DHT22;43683;48.650;9.290;2023-04-16T13:35:42;8.90;89.90
57857;DHT22;43683;48.650;9.290;2023-04-16T13:38:07;8.80;89.90
57857;DHT22;43683;48.650;9.290;2023-04-16T13:40:33;8.80;89.90
57857;DHT22;43683;48.650;9.290;2023-04-16T13:42:58;8.70;89.80
57857;DHT22;43683;48.650;9.290;2023-04-16T13:45:24;8.70;89.90
57857;DHT22;43683;48.650;9.290;2023-04-16T13:47:52;8.70;89.80
57857;DHT22;43683;48.650;9.290;2023-04-16T13:50:18;8.80;89.70
57857;DHT22;43683;48.650;9.290;2023-04-16T13:52:43;8.70;89.70
57857;DHT22;43683;48.650;9.290;2023-04-16T13:55:09;8.70;89.70
57857;DHT22;43683;48.650;9.290;2023-04-16T13:57:38;8.70;89.90
57857;DHT22;43683;48.650;9.290;2023-04-16T14:00:04;8.80;89.80
57857;DHT22;43683;48.650;9.290;2023-04-16T14:02:30;8.80;89.70
57857;DHT22;43683;48.650;9.290;2023-04-16T14:04:55;8.80;89.60
57857;DHT22;43683;48.650;9.290;2023-04-16T14:07:21;8.70;89.70
57857;DHT22;43683;48.650;9.290;2023-04-16T14:09:50;8.70;89.90
57857;DHT22;43683;48.650;9.290;2023-04-16T14:12:15;8.70;89.80
57857;DHT22;43683;48.650;9.290;2023-04-16T14:14:41;8.60;90.10
57857;DHT22;43683;48.650;9.290;2023-04-16T14:17:06;8.60;90.20
57857;DHT22;43683;48.650;9.290;2023-04-16T14:19:32;8.60;90.10
57857;DHT22;43683;48.650;9.290;2023-04-16T14:21:57;8.70;90.10
57857;DHT22;43683;48.650;9.290;2023-04-16T14:24:23;8.70;90.00
57857;DHT22;43683;48.650;9.290;2023-04-16T14:26:48;8.70;90.00
57857;DHT22;43683;48.650;9.290;2023-04-16T14:29:14;8.70;90.00
57857;DHT22;43683;48.650;9.290;2023-04-16T14:31:39;8.80;89.90
57857;DHT22;43683;48.650;9.290;2023-04-16T14:34:05;8.80;89.70
57857;DHT22;43683;48.650;9.290;2023-04-16T14:36:31;8.80;89.70
57857;DHT22;43683;48.650;9.290;2023-04-16T14:38:56;8.80;89.80
57857;DHT22;43683;48.650;9.290;2023-04-16T14:41:22;8.80;89.90
57857;DHT22;43683;48.650;9.290;2023-04-16T14:43:48;8.70;89.80
57857;DHT22;43683;48.650;9.290;2023-04-16T14:46:13;8.70;90.00
57857;DHT22;43683;48.650;9.290;2023-04-16T14:48:42;8.70;90.10
57857;DHT22;43683;48.650;9.290;2023-04-16T14:51:09;8.70;90.10
57857;DHT22;43683;48.650;9.290;2023-04-16T14:53:36;8.70;90.10
57857;DHT22;43683;48.650;9.290;2023-04-16T14:56:02;8.60;90.10
57857;DHT22;43683;48.650;9.290;2023-04-16T14:58:27;8.60;90.20
57857;DHT22;43683;48.650;9.290;2023-04-16T15:00:53;8.60;90.20
57857;DHT22;43683;48.650;9.290;2023-04-16T15:03:18;8.50;90.30
57857;DHT22;43683;48.650;9.290;2023-04-16T15:05:44;8.50;90.30
57857;DHT22;43683;48.650;9.290;2023-04-16T15:08:11;8.50;90.30
57857;DHT22;43683;48.650;9.290;2023-04-16T15:10:37;8.50;90.40
57857;DHT22;43683;48.650;9.290;2023-04-16T15:13:02;8.50;90.30
57857;DHT22;43683;48.650;9.290;2023-04-16T15:15:28;8.50;90.40
57857;DHT22;43683;48.650;9.290;2023-04-16T15:17:53;8.50;90.40
57857;DHT22;43683;48.650;9.290;2023-04-16T15:20:21;8.40;90.40
57857;DHT22;43683;48.650;9.290;2023-04-16T15:22:46;8.50;90.40
57857;DHT22;43683;48.650;9.290;2023-04-16T15:25:12;8.50;90.40
57857;DHT22;43683;48.650;9.290;2023-04-16T15:27:37;8.50;90.40
57857;DHT22;43683;48.650;9.290;2023-04-16T15:30:03;8.60;90.40
57857;DHT22;43683;48.650;9.290;2023-04-16T15:32:30;8.50;90.50
57857;DHT22;43683;48.650;9.290;2023-04-16T15:34:55;8.50;90.50
57857;DHT22;43683;48.650;9.290;2023-04-16T15:37:21;8.50;90.50
57857;DHT22;43683;48.650;9.290;2023-04-16T15:39:46;8.50;90.60
57857;DHT22;43683;48.650;9.290;2023-04-16T15:42:12;8.60;90.60
57857;DHT22;43683;48.650;9.290;2023-04-16T15:44:37;8.60;90.60
57857;DHT22;43683;48.650;9.290;2023-04-16T15:47:03;8.60;90.60
57857;DHT22;43683;48.650;9.290;2023-04-16T15:49:30;8.50;90.60